createdAt,value
2018-09-05T00:01:17.503Z,99.90
2018-09-05T00:03:46.604Z,99.90
2018-09-05T00:06:15.689Z,99.90
2018-09-05T00:08:44.790Z,99.90
2018-09-05T00:11:14.018Z,99.90
2018-09-05T00:13:43.123Z,99.90
2018-09-05T00:16:12.226Z,99.90
2018-09-05T00:18:41.353Z,99.90
2018-09-05T00:21:10.437Z,99.90
2018-09-05T00:23:39.533Z,99.90
2018-09-05T00:26:08.663Z,99.90
2018-09-05T00:28:37.741Z,99.90
2018-09-05T00:31:09.607Z,99.90
2018-09-05T00:33:38.886Z,99.90
2018-09-05T00:36:08.158Z,99.90
2018-09-05T00:38:37.270Z,99.90
2018-09-05T00:41:06.524Z,99.90
2018-09-05T00:43:35.655Z,99.90
2018-09-05T00:46:04.785Z,99.90
2018-09-05T00:48:33.872Z,99.90
2018-09-05T00:51:02.935Z,99.90
2018-09-05T00:53:32.057Z,99.90
2018-09-05T00:56:01.156Z,99.90
2018-09-05T00:58:30.244Z,99.90
2018-09-05T01:00:59.329Z,99.90
2018-09-05T01:03:28.877Z,99.90
2018-09-05T01:05:57.945Z,99.90
2018-09-05T01:08:27.101Z,99.90
2018-09-05T01:10:56.191Z,99.90
2018-09-05T01:13:25.382Z,99.90
2018-09-05T01:15:54.472Z,99.90
2018-09-05T01:18:23.556Z,99.90
2018-09-05T01:20:52.781Z,99.90
2018-09-05T01:23:21.871Z,99.90
2018-09-05T01:25:50.973Z,99.90
2018-09-05T01:28:20.611Z,99.90
2018-09-05T01:30:49.759Z,99.90
2018-09-05T01:33:18.855Z,99.90
2018-09-05T01:35:48.045Z,99.90
2018-09-05T01:38:17.146Z,99.90
2018-09-05T01:40:46.249Z,99.90
2018-09-05T01:43:15.332Z,99.90
2018-09-05T01:45:44.373Z,99.90
2018-09-05T01:48:13.491Z,99.90
2018-09-05T01:50:42.567Z,99.90
2018-09-05T01:53:12.310Z,99.90
2018-09-05T01:55:41.378Z,99.90
2018-09-05T01:58:10.471Z,99.90
2018-09-05T02:00:40.481Z,99.90
2018-09-05T02:03:09.557Z,99.90
2018-09-05T02:05:39.045Z,99.90
2018-09-05T02:08:08.241Z,99.90
2018-09-05T02:10:37.347Z,99.90
2018-09-05T02:13:06.477Z,99.90
2018-09-05T02:15:35.595Z,99.90
2018-09-05T02:18:04.735Z,99.90
2018-09-05T02:20:33.852Z,99.90
2018-09-05T02:23:02.939Z,99.90
2018-09-05T02:25:32.037Z,99.90
2018-09-05T02:28:01.203Z,99.90
2018-09-05T02:30:30.711Z,99.90
2018-09-05T02:32:59.797Z,99.90
2018-09-05T02:35:28.931Z,99.90
2018-09-05T02:37:58.005Z,99.90
2018-09-05T02:40:27.200Z,99.90
2018-09-05T02:42:56.201Z,99.90
2018-09-05T02:45:25.283Z,99.90
2018-09-05T02:47:54.341Z,99.90
2018-09-05T02:50:23.432Z,99.90
2018-09-05T02:52:52.527Z,99.90
2018-09-05T02:55:26.852Z,99.90
2018-09-05T02:57:55.969Z,99.90
2018-09-05T03:00:25.058Z,99.90
2018-09-05T03:02:54.144Z,99.90
2018-09-05T03:05:23.224Z,99.90
2018-09-05T03:07:52.441Z,99.90
2018-09-05T03:10:21.517Z,99.90
2018-09-05T03:12:50.621Z,99.90
2018-09-05T03:15:19.771Z,99.90
2018-09-05T03:17:49.519Z,99.90
2018-09-05T03:20:18.700Z,99.90
2018-09-05T03:22:48.069Z,99.90
2018-09-05T03:25:17.243Z,99.90
2018-09-05T03:27:46.369Z,99.90
2018-09-05T03:30:15.463Z,99.90
2018-09-05T03:32:44.619Z,99.90
2018-09-05T03:35:14.416Z,99.90
2018-09-05T03:37:43.505Z,99.90
2018-09-05T03:40:12.633Z,99.90
2018-09-05T03:42:41.770Z,99.90
2018-09-05T03:45:10.871Z,99.90
2018-09-05T03:47:39.984Z,99.90
2018-09-05T03:50:09.511Z,99.90
2018-09-05T03:52:38.577Z,99.90
2018-09-05T03:55:08.303Z,99.90
2018-09-05T03:57:37.347Z,99.90
2018-09-05T04:00:07.096Z,99.90
2018-09-05T04:02:36.239Z,99.90
2018-09-05T04:05:05.491Z,99.90
2018-09-05T04:07:35.489Z,99.90
2018-09-05T04:10:04.889Z,99.90
2018-09-05T04:12:38.173Z,99.90
2018-09-05T04:15:07.319Z,99.90
2018-09-05T04:17:36.433Z,99.90
2018-09-05T04:20:06.104Z,99.90
2018-09-05T04:22:35.205Z,99.90
2018-09-05T04:25:04.301Z,99.90
2018-09-05T04:27:33.383Z,99.90
2018-09-05T04:30:02.468Z,99.90
2018-09-05T04:32:31.560Z,99.90
2018-09-05T04:35:00.631Z,99.90
2018-09-05T04:37:29.703Z,99.90
2018-09-05T04:39:58.861Z,99.90
2018-09-05T04:42:28.245Z,99.90
2018-09-05T04:44:57.355Z,99.90
2018-09-05T04:47:26.467Z,99.90
2018-09-05T04:49:55.581Z,99.90
2018-09-05T04:52:24.715Z,99.90
2018-09-05T04:54:53.849Z,99.90
2018-09-05T04:57:22.904Z,99.90
2018-09-05T04:59:52.035Z,99.90
2018-09-05T05:02:21.169Z,99.90
2018-09-05T05:04:50.291Z,99.90
2018-09-05T05:07:19.355Z,99.90
2018-09-05T05:09:48.456Z,99.90
2018-09-05T05:12:17.696Z,99.90
2018-09-05T05:14:46.782Z,99.90
2018-09-05T05:17:15.842Z,99.90
2018-09-05T05:19:44.933Z,99.90
2018-09-05T05:22:14.054Z,99.90
2018-09-05T05:24:43.172Z,99.90
2018-09-05T05:27:12.233Z,99.90
2018-09-05T05:29:41.330Z,99.90
2018-09-05T05:32:10.425Z,99.90
2018-09-05T05:34:39.542Z,99.90
2018-09-05T05:37:08.674Z,99.90
2018-09-05T05:39:37.749Z,99.90
2018-09-05T05:42:06.828Z,99.90
2018-09-05T05:44:35.986Z,99.90
2018-09-05T05:47:05.112Z,99.90
2018-09-05T05:49:34.197Z,99.90
2018-09-05T05:52:03.311Z,99.90
2018-09-05T05:54:32.449Z,99.90
2018-09-05T05:57:01.530Z,99.90
2018-09-05T05:59:30.657Z,99.90
2018-09-05T06:01:59.909Z,99.90
2018-09-05T06:04:29.102Z,99.90
2018-09-05T06:06:58.185Z,99.90
2018-09-05T06:09:27.292Z,99.90
2018-09-05T06:11:56.518Z,99.90
2018-09-05T06:14:25.959Z,99.90
2018-09-05T06:16:55.156Z,99.90
2018-09-05T06:19:24.278Z,99.90
2018-09-05T06:21:53.426Z,99.90
2018-09-05T06:24:22.512Z,99.90
2018-09-05T06:26:51.582Z,99.90
2018-09-05T06:29:20.803Z,99.90
2018-09-05T06:31:49.972Z,99.90
2018-09-05T06:34:19.131Z,99.90
2018-09-05T06:36:48.206Z,99.90
2018-09-05T06:39:17.324Z,99.90
2018-09-05T06:41:46.430Z,99.90
2018-09-05T06:44:15.548Z,99.90
2018-09-05T06:46:44.646Z,99.90
2018-09-05T06:49:13.770Z,99.90
2018-09-05T06:51:42.851Z,99.90
2018-09-05T06:54:11.928Z,99.90
2018-09-05T06:56:41.012Z,99.90
2018-09-05T06:59:10.144Z,99.90
2018-09-05T07:01:39.220Z,99.90
2018-09-05T07:04:08.329Z,99.90
2018-09-05T07:06:37.459Z,99.90
2018-09-05T07:09:09.190Z,99.90
2018-09-05T07:11:38.422Z,99.90
2018-09-05T07:14:07.738Z,99.90
2018-09-05T07:16:37.161Z,99.90
2018-09-05T07:19:07.810Z,99.90
2018-09-05T07:21:37.292Z,99.90
2018-09-05T07:24:06.815Z,99.90
2018-09-05T07:26:36.261Z,99.90
2018-09-05T07:29:05.630Z,99.90
2018-09-05T07:31:34.785Z,99.90
2018-09-05T07:34:03.900Z,99.90
2018-09-05T07:36:33.051Z,99.90
2018-09-05T07:39:02.162Z,99.90
2018-09-05T07:41:31.255Z,99.90
2018-09-05T07:44:00.376Z,99.90
2018-09-05T07:46:29.559Z,99.90
2018-09-05T07:48:58.720Z,99.90
2018-09-05T07:51:27.826Z,99.90
2018-09-05T07:53:56.901Z,99.90
2018-09-05T07:56:25.983Z,99.90
2018-09-05T07:58:55.212Z,99.90
2018-09-05T08:01:24.343Z,99.90
2018-09-05T08:03:53.533Z,99.90
2018-09-05T08:06:22.661Z,99.90
2018-09-05T08:08:51.771Z,99.90
2018-09-05T08:11:20.931Z,99.90
2018-09-05T08:13:50.088Z,99.90
2018-09-05T08:16:19.297Z,99.90
2018-09-05T08:18:48.623Z,99.90
2018-09-05T08:21:17.751Z,99.90
2018-09-05T08:23:46.975Z,99.90
2018-09-05T08:26:16.076Z,99.90
2018-09-05T08:28:45.932Z,99.90
2018-09-05T08:31:15.053Z,99.90
2018-09-05T08:33:44.275Z,99.90
2018-09-05T08:36:13.669Z,99.90
2018-09-05T08:38:42.616Z,99.90
2018-09-05T08:41:12.044Z,99.90
2018-09-05T08:43:41.900Z,99.90
2018-09-05T08:46:11.204Z,99.90
2018-09-05T08:48:40.075Z,99.90
2018-09-05T08:51:09.118Z,99.90
2018-09-05T08:53:38.268Z,99.90
2018-09-05T08:56:07.373Z,99.90
2018-09-05T08:58:36.539Z,99.90
2018-09-05T09:01:05.700Z,99.90
2018-09-05T09:03:34.812Z,99.90
2018-09-05T09:06:03.959Z,99.90
2018-09-05T09:08:33.024Z,99.90
2018-09-05T09:11:02.114Z,99.90
2018-09-05T09:13:31.224Z,99.90
2018-09-05T09:16:00.326Z,99.90
2018-09-05T09:18:29.420Z,99.90
2018-09-05T09:20:58.850Z,99.90
2018-09-05T09:23:28.854Z,99.90
2018-09-05T09:25:57.970Z,99.90
2018-09-05T09:28:27.096Z,99.90
2018-09-05T09:30:56.221Z,99.90
2018-09-05T09:33:25.318Z,99.90
2018-09-05T09:35:54.410Z,99.90
2018-09-05T09:38:23.502Z,99.90
2018-09-05T09:40:52.652Z,99.90
2018-09-05T09:43:21.768Z,99.90
2018-09-05T09:45:50.876Z,99.90
2018-09-05T09:48:19.964Z,99.90
2018-09-05T09:50:49.026Z,99.90
2018-09-05T09:53:18.184Z,99.90
2018-09-05T09:55:47.366Z,99.90
2018-09-05T09:58:16.816Z,99.90
2018-09-05T10:00:51.220Z,99.90
2018-09-05T10:03:25.723Z,99.90
2018-09-05T10:05:59.872Z,99.90
2018-09-05T10:10:39.923Z,99.90
2018-09-05T10:13:13.254Z,99.90
2018-09-05T10:15:47.530Z,99.90
2018-09-05T10:18:22.274Z,99.90
2018-09-05T10:20:51.496Z,99.90
2018-09-05T10:23:20.610Z,99.90
2018-09-05T10:25:49.731Z,99.90
2018-09-05T10:28:18.838Z,99.90
2018-09-05T10:30:47.976Z,99.90
2018-09-05T10:33:17.172Z,99.90
2018-09-05T10:35:46.386Z,99.90
2018-09-05T10:38:15.513Z,99.90
2018-09-05T10:40:44.890Z,99.90
2018-09-05T10:43:14.006Z,99.90
2018-09-05T10:45:43.114Z,99.90
2018-09-05T10:48:13.826Z,99.90
2018-09-05T10:50:43.038Z,99.90
2018-09-05T10:53:12.198Z,99.90
2018-09-05T10:55:41.325Z,99.90
2018-09-05T10:58:10.507Z,99.90
2018-09-05T11:00:39.588Z,99.90
2018-09-05T11:03:08.891Z,99.90
2018-09-05T11:05:38.053Z,99.90
2018-09-05T11:08:07.317Z,99.90
2018-09-05T11:10:36.453Z,99.90
2018-09-05T11:13:05.751Z,99.90
2018-09-05T11:15:34.848Z,99.90
2018-09-05T11:18:04.094Z,99.90
2018-09-05T11:20:33.396Z,99.20
2018-09-05T11:23:02.506Z,98.10
2018-09-05T11:25:31.575Z,97.60
2018-09-05T11:28:00.644Z,97.60
2018-09-05T11:30:29.772Z,97.20
2018-09-05T11:32:58.942Z,96.10
2018-09-05T11:35:28.042Z,95.70
2018-09-05T11:37:57.118Z,94.90
2018-09-05T11:40:26.268Z,95.40
2018-09-05T11:42:55.456Z,94.20
2018-09-05T11:45:24.522Z,93.80
2018-09-05T11:47:53.620Z,94.20
2018-09-05T11:50:22.727Z,94.10
2018-09-05T11:52:51.866Z,92.60
2018-09-05T11:55:20.984Z,89.80
2018-09-05T11:57:50.109Z,87.70
2018-09-05T12:00:19.198Z,90.00
2018-09-05T12:02:48.278Z,88.70
2018-09-05T12:05:17.355Z,78.90
2018-09-05T12:07:46.454Z,83.80
2018-09-05T12:10:15.628Z,81.50
2018-09-05T12:12:44.788Z,80.70
2018-09-05T12:15:13.872Z,79.00
2018-09-05T12:17:42.986Z,77.50
2018-09-05T12:20:12.198Z,79.70
2018-09-05T12:22:41.473Z,77.20
2018-09-05T12:25:10.976Z,77.10
2018-09-05T12:27:40.064Z,74.20
2018-09-05T12:30:09.234Z,73.90
2018-09-05T12:32:38.336Z,66.00
2018-09-05T12:35:37.057Z,69.50
2018-09-05T12:38:06.151Z,69.30
2018-09-05T12:40:35.286Z,70.40
2018-09-05T12:43:04.451Z,70.30
2018-09-05T12:45:33.512Z,72.70
2018-09-05T12:48:02.630Z,71.20
2018-09-05T12:50:31.746Z,69.20
2018-09-05T12:53:00.899Z,71.70
2018-09-05T12:55:29.968Z,70.10
2018-09-05T12:57:59.094Z,70.70
2018-09-05T13:00:28.294Z,67.20
2018-09-05T13:02:57.375Z,67.20
2018-09-05T13:05:26.489Z,69.40
2018-09-05T13:07:55.553Z,67.80
2018-09-05T13:10:24.734Z,68.20
2018-09-05T13:12:53.838Z,67.10
2018-09-05T13:15:22.946Z,67.30
2018-09-05T13:17:52.036Z,65.50
2018-09-05T13:20:21.138Z,68.50
2018-09-05T13:22:50.701Z,64.90
2018-09-05T13:25:19.740Z,66.70
2018-09-05T13:27:48.986Z,63.40
2018-09-05T13:30:18.071Z,62.00
2018-09-05T13:32:47.173Z,64.30
2018-09-05T13:35:16.353Z,63.10
2018-09-05T13:37:45.445Z,61.80
2018-09-05T13:40:14.565Z,64.60
2018-09-05T13:42:43.660Z,65.30
2018-09-05T13:45:12.848Z,70.10
2018-09-05T13:47:41.887Z,70.10
2018-09-05T13:50:11.060Z,69.70
2018-09-05T13:52:40.188Z,69.60
2018-09-05T13:55:09.324Z,70.10
2018-09-05T13:57:38.425Z,69.40
2018-09-05T14:00:08.643Z,68.10
2018-09-05T14:02:37.781Z,67.70
2018-09-05T14:05:07.093Z,67.50
2018-09-05T14:07:36.220Z,70.30
2018-09-05T14:10:05.380Z,67.60
2018-09-05T14:12:34.487Z,69.40
2018-09-05T14:15:03.639Z,71.20
2018-09-05T14:17:32.876Z,69.90
2018-09-05T14:20:02.195Z,68.70
2018-09-05T14:22:31.298Z,66.90
2018-09-05T14:25:00.823Z,64.80
2018-09-05T14:27:29.982Z,64.20
2018-09-05T14:29:59.061Z,66.00
2018-09-05T14:32:28.775Z,68.40
2018-09-05T14:34:58.168Z,64.40
2018-09-05T14:37:27.531Z,62.60
2018-09-05T14:39:56.673Z,64.10
2018-09-05T14:42:25.822Z,65.00
2018-09-05T14:44:54.941Z,63.60
2018-09-05T14:47:24.024Z,62.60
2018-09-05T14:49:53.112Z,62.20
2018-09-05T14:52:22.187Z,62.40
2018-09-05T14:54:51.285Z,58.20
2018-09-05T14:57:20.687Z,59.00
2018-09-05T14:59:49.876Z,57.10
2018-09-05T15:02:19.799Z,56.70
2018-09-05T15:04:48.905Z,57.20
2018-09-05T15:07:18.057Z,57.10
2018-09-05T15:09:47.139Z,58.40
2018-09-05T15:12:16.235Z,58.20
2018-09-05T15:14:45.387Z,58.20
2018-09-05T15:17:14.552Z,56.10
2018-09-05T15:19:43.669Z,56.70
2018-09-05T15:22:12.825Z,58.10
2018-09-05T15:24:41.889Z,57.30
2018-09-05T15:27:11.315Z,55.20
2018-09-05T15:29:40.382Z,55.20
2018-09-05T15:32:09.490Z,55.00
2018-09-05T15:34:38.590Z,55.80
2018-09-05T15:37:07.695Z,55.90
2018-09-05T15:39:36.808Z,53.60
2018-09-05T15:42:05.987Z,53.20
2018-09-05T15:44:35.041Z,53.70
2018-09-05T15:47:04.191Z,54.40
2018-09-05T15:49:33.259Z,53.40
2018-09-05T15:52:02.340Z,52.80
2018-09-05T15:54:31.498Z,51.60
2018-09-05T15:57:00.589Z,51.90
2018-09-05T15:59:29.707Z,53.30
2018-09-05T16:01:58.861Z,52.30
2018-09-05T16:04:27.964Z,53.70
2018-09-05T16:06:57.085Z,55.10
2018-09-05T16:09:26.187Z,55.80
2018-09-05T16:11:55.334Z,55.00
2018-09-05T16:14:24.429Z,57.60
2018-09-05T16:16:53.492Z,57.40
2018-09-05T16:19:22.597Z,57.40
2018-09-05T16:21:51.722Z,55.90
2018-09-05T16:24:20.791Z,56.20
2018-09-05T16:26:49.869Z,55.60
2018-09-05T16:29:19.093Z,55.80
2018-09-05T16:31:48.199Z,56.10
2018-09-05T16:34:17.329Z,56.00
2018-09-05T16:36:46.447Z,55.50
2018-09-05T16:39:15.561Z,55.90
2018-09-05T16:41:44.725Z,55.90
2018-09-05T16:44:13.846Z,56.20
2018-09-05T16:46:42.938Z,56.00
2018-09-05T16:49:12.048Z,56.70
2018-09-05T16:51:41.147Z,56.70
2018-09-05T16:54:10.243Z,56.80
2018-09-05T16:56:39.380Z,56.40
2018-09-05T16:59:08.460Z,56.60
2018-09-05T17:01:37.544Z,57.40
2018-09-05T17:04:06.758Z,56.30
2018-09-05T17:06:35.836Z,56.20
2018-09-05T17:09:08.593Z,55.70
2018-09-05T17:11:37.749Z,55.20
2018-09-05T17:14:07.033Z,56.20
2018-09-05T17:16:36.163Z,56.60
2018-09-05T17:19:05.270Z,56.20
2018-09-05T17:21:34.354Z,56.50
2018-09-05T17:24:03.453Z,57.00
2018-09-05T17:26:32.537Z,58.60
2018-09-05T17:29:01.590Z,58.90
2018-09-05T17:31:30.825Z,59.80
2018-09-05T17:33:59.943Z,61.30
2018-09-05T17:36:29.082Z,62.10
2018-09-05T17:38:58.195Z,64.20
2018-09-05T17:41:27.280Z,66.00
2018-09-05T17:43:56.380Z,66.70
2018-09-05T17:46:25.465Z,68.90
2018-09-05T17:48:54.532Z,70.00
2018-09-05T17:51:23.596Z,70.80
2018-09-05T17:53:52.687Z,71.70
2018-09-05T17:56:22.055Z,73.00
2018-09-05T17:58:51.331Z,73.70
2018-09-05T18:01:22.008Z,75.30
2018-09-05T18:03:51.089Z,76.50
2018-09-05T18:06:20.470Z,77.70
2018-09-05T18:08:49.587Z,77.90
2018-09-05T18:11:18.711Z,77.60
2018-09-05T18:13:47.765Z,77.80
2018-09-05T18:16:16.841Z,80.70
2018-09-05T18:18:45.931Z,83.60
2018-09-05T18:21:15.033Z,86.50
2018-09-05T18:23:44.150Z,85.90
2018-09-05T18:26:13.237Z,87.20
2018-09-05T18:28:42.329Z,87.80
2018-09-05T18:31:11.452Z,87.30
2018-09-05T18:33:40.821Z,86.70
2018-09-05T18:36:09.873Z,87.80
2018-09-05T18:38:39.011Z,88.20
2018-09-05T18:41:08.145Z,88.50
2018-09-05T18:43:37.227Z,87.90
2018-09-05T18:46:06.523Z,87.70
2018-09-05T18:48:35.771Z,88.40
2018-09-05T18:51:04.917Z,88.00
2018-09-05T18:53:34.045Z,89.30
2018-09-05T18:56:03.233Z,88.90
2018-09-05T18:58:32.353Z,89.60
2018-09-05T19:01:01.473Z,89.00
2018-09-05T19:03:30.580Z,90.40
2018-09-05T19:05:59.637Z,91.20
2018-09-05T19:08:28.804Z,92.30
2018-09-05T19:10:57.867Z,93.00
2018-09-05T19:13:27.025Z,92.90
2018-09-05T19:15:56.133Z,94.10
2018-09-05T19:18:25.228Z,94.20
2018-09-05T19:20:54.321Z,96.50
2018-09-05T19:23:23.409Z,96.40
2018-09-05T19:25:52.475Z,95.60
2018-09-05T19:28:21.624Z,94.30
2018-09-05T19:30:50.695Z,95.20
2018-09-05T19:33:19.846Z,94.80
2018-09-05T19:35:49.184Z,95.70
2018-09-05T19:38:18.277Z,95.30
2018-09-05T19:40:47.462Z,97.00
2018-09-05T19:43:16.525Z,98.70
2018-09-05T19:45:45.619Z,99.40
2018-09-05T19:48:14.730Z,99.90
2018-09-05T19:50:43.815Z,99.90
2018-09-05T19:53:12.888Z,99.90
2018-09-05T19:55:41.991Z,99.90
2018-09-05T19:58:11.100Z,99.90
2018-09-05T20:00:40.218Z,99.90
2018-09-05T20:03:09.321Z,99.90
2018-09-05T20:05:38.380Z,99.90
2018-09-05T20:08:07.488Z,99.90
2018-09-05T20:10:36.592Z,99.90
2018-09-05T20:13:06.301Z,99.90
2018-09-05T20:15:35.505Z,99.90
2018-09-05T20:18:04.575Z,99.90
2018-09-05T20:20:33.660Z,99.90
2018-09-05T20:23:02.742Z,99.90
2018-09-05T20:25:32.127Z,99.90
2018-09-05T20:28:01.288Z,99.90
2018-09-05T20:30:30.419Z,99.90
2018-09-05T20:33:00.228Z,99.90
2018-09-05T20:35:29.232Z,99.90
2018-09-05T20:37:58.529Z,99.90
2018-09-05T20:40:27.617Z,99.90
2018-09-05T20:42:56.702Z,99.90
2018-09-05T20:45:25.802Z,99.90
2018-09-05T20:47:54.854Z,99.90
2018-09-05T20:50:23.987Z,99.90
2018-09-05T20:52:53.234Z,99.90
2018-09-05T20:55:22.353Z,99.90
2018-09-05T20:57:51.466Z,99.90
2018-09-05T21:00:20.594Z,99.90
2018-09-05T21:02:49.684Z,99.90
2018-09-05T21:05:18.780Z,99.90
2018-09-05T21:07:47.907Z,99.90
2018-09-05T21:10:16.986Z,99.90
2018-09-05T21:12:46.100Z,99.90
2018-09-05T21:15:15.207Z,99.90
2018-09-05T21:17:44.329Z,99.90
2018-09-05T21:20:13.497Z,99.90
2018-09-05T21:22:42.604Z,99.90
2018-09-05T21:25:11.721Z,99.90
2018-09-05T21:27:40.833Z,99.90
2018-09-05T21:30:09.929Z,99.90
2018-09-05T21:32:39.073Z,99.90
2018-09-05T21:35:08.211Z,99.90
2018-09-05T21:37:37.311Z,99.90
2018-09-05T21:40:06.807Z,99.90
2018-09-05T21:42:35.875Z,99.90
2018-09-05T21:45:05.577Z,99.90
2018-09-05T21:47:34.653Z,99.90
2018-09-05T21:50:03.804Z,99.90
2018-09-05T21:52:32.859Z,99.90
2018-09-05T21:55:01.935Z,99.90
2018-09-05T21:57:31.017Z,99.90
2018-09-05T22:00:00.071Z,99.90
2018-09-05T22:02:29.204Z,99.90
2018-09-05T22:04:58.362Z,99.90
2018-09-05T22:07:27.490Z,99.90
2018-09-05T22:09:56.573Z,99.90
2018-09-05T22:12:25.649Z,99.90
2018-09-05T22:14:54.765Z,99.90
2018-09-05T22:17:23.830Z,99.90
2018-09-05T22:19:52.929Z,99.90
2018-09-05T22:22:22.033Z,99.90
2018-09-05T22:24:51.123Z,99.90
2018-09-05T22:27:20.231Z,99.90
2018-09-05T22:29:49.343Z,99.90
2018-09-05T22:32:19.549Z,99.90
2018-09-05T22:34:48.644Z,99.90
2018-09-05T22:37:17.746Z,99.90
2018-09-05T22:39:47.426Z,99.90
2018-09-05T22:42:16.809Z,99.90
2018-09-05T22:44:57.305Z,99.90
2018-09-05T22:48:38.609Z,99.90
2018-09-05T22:52:24.230Z,99.90
2018-09-05T22:55:25.411Z,99.90
2018-09-05T23:00:12.848Z,99.90
2018-09-05T23:05:57.498Z,99.90
2018-09-05T23:08:33.825Z,99.90
2018-09-05T23:11:14.106Z,99.90
2018-09-05T23:13:54.485Z,99.90
2018-09-05T23:18:36.179Z,99.90
2018-09-05T23:21:25.802Z,99.90
2018-09-05T23:23:59.845Z,99.90
2018-09-05T23:26:29.169Z,99.90
2018-09-05T23:28:58.277Z,99.90
2018-09-05T23:31:27.433Z,99.90
2018-09-05T23:33:56.701Z,99.90
2018-09-05T23:36:25.991Z,99.90
2018-09-05T23:38:55.419Z,99.90
2018-09-05T23:41:24.495Z,99.90
2018-09-05T23:43:53.777Z,99.90
2018-09-05T23:46:22.949Z,99.90
2018-09-05T23:48:52.077Z,99.90
2018-09-05T23:51:21.161Z,99.90
2018-09-05T23:53:50.267Z,99.90
2018-09-05T23:56:19.406Z,99.90
2018-09-05T23:58:48.543Z,99.90
